Time;durP1;ratioP1;P1;durP2;ratioP2;P2;SDS_P1;SDS_P2;PMS_P1;PMS_P2;Temp;Humidity;BMP_temperature;BMP_pressure;BME280_temperature;BME280_humidity;BME280_pressure;Samples;Min_cycle;Max_cycle;Signal;HPM_P1;HPM_P2
2024/01/25 00:00:24;;;;;;;1.90;0.30;;;;;;;;;;5005189;28;20535;-79
2024/01/25 00:02:51;;;;;;;0.88;0.32;;;;;;;;;;5002590;28;20050;-79
2024/01/25 00:05:19;;;;;;;0.17;0.17;;;;;;;;;;5005719;28;20060;-79
2024/01/25 00:07:50;;;;;;;0.40;0.40;;;;;;;;;;5006246;28;20054;-79
2024/01/25 00:10:18;;;;;;;0.27;0.27;;;;;;;;;;4998326;28;20448;-79
2024/01/25 00:12:46;;;;;;;0.10;0.10;;;;;;;;;;4998311;28;20050;-79
2024/01/25 00:15:15;;;;;;;0.10;0.10;;;;;;;;;;5001831;28;20514;-78
2024/01/25 00:17:42;;;;;;;0.10;0.10;;;;;;;;;;4982115;28;20046;-80
2024/01/25 00:20:11;;;;;;;0.10;0.10;;;;;;;;;;5000055;28;20681;-79
2024/01/25 00:22:38;;;;;;;2.83;0.90;;;;;;;;;;4996267;28;20662;-79
2024/01/25 00:25:06;;;;;;;2.10;0.20;;;;;;;;;;5001072;28;20058;-78
2024/01/25 00:27:34;;;;;;;0.10;0.10;;;;;;;;;;4997399;28;20096;-79
2024/01/25 00:30:01;;;;;;;3.75;0.52;;;;;;;;;;4999665;28;20141;-78
2024/01/25 00:32:30;;;;;;;0.10;0.10;;;;;;;;;;4995046;28;20569;-74
2024/01/25 00:34:58;;;;;;;0.10;0.10;;;;;;;;;;4997611;28;20057;-74
2024/01/25 00:37:25;;;;;;;0.10;0.10;;;;;;;;;;4994660;28;20050;-74
2024/01/25 00:39:53;;;;;;;0.10;0.10;;;;;;;;;;5000570;28;20151;-74
2024/01/25 00:42:23;;;;;;;0.10;0.10;;;;;;;;;;5000051;28;20038;-75
2024/01/25 00:44:51;;;;;;;0.10;0.10;;;;;;;;;;4997641;28;20129;-74
2024/01/25 00:47:19;;;;;;;0.30;0.30;;;;;;;;;;4998228;28;20050;-74
2024/01/25 00:49:46;;;;;;;0.10;0.10;;;;;;;;;;5000446;28;20049;-74
2024/01/25 00:52:14;;;;;;;0.20;0.20;;;;;;;;;;4995096;28;20542;-75
2024/01/25 00:54:42;;;;;;;0.10;0.10;;;;;;;;;;5000265;28;20049;-74
2024/01/25 00:57:10;;;;;;;0.17;0.17;;;;;;;;;;4999031;28;20050;-75
2024/01/25 00:59:37;;;;;;;0.20;0.20;;;;;;;;;;4979476;28;20141;-74
2024/01/25 01:02:06;;;;;;;0.30;0.30;;;;;;;;;;5004534;28;20500;-74
2024/01/25 01:04:36;;;;;;;0.10;0.10;;;;;;;;;;5003453;28;20048;-74
2024/01/25 01:07:15;;;;;;;0.10;0.10;;;;;;;;;;5003816;28;20670;-74
2024/01/25 01:09:43;;;;;;;0.28;0.28;;;;;;;;;;5005398;28;20045;-74
2024/01/25 01:12:11;;;;;;;0.40;0.40;;;;;;;;;;4996561;28;20050;-74
2024/01/25 01:14:38;;;;;;;0.10;0.10;;;;;;;;;;4998761;28;20054;-74
2024/01/25 01:17:06;;;;;;;3.20;0.57;;;;;;;;;;5001991;28;20053;-74
2024/01/25 01:19:33;;;;;;;7.82;0.90;;;;;;;;;;5004698;28;20655;-75
2024/01/25 01:22:01;;;;;;;1.90;0.45;;;;;;;;;;5003212;28;20100;-74
2024/01/25 01:24:29;;;;;;;0.20;0.20;;;;;;;;;;5001989;28;20038;-74
2024/01/25 01:26:56;;;;;;;0.32;0.32;;;;;;;;;;4999293;28;20439;-74
2024/01/25 01:29:24;;;;;;;0.30;0.30;;;;;;;;;;5004823;28;20551;-74
2024/01/25 01:31:51;;;;;;;0.35;0.35;;;;;;;;;;4993965;28;23468;-74
2024/01/25 01:34:19;;;;;;;0.35;0.35;;;;;;;;;;4994444;28;20361;-74
2024/01/25 01:36:46;;;;;;;0.28;0.28;;;;;;;;;;4998610;28;20770;-73
2024/01/25 01:39:14;;;;;;;0.90;0.28;;;;;;;;;;4997903;28;20463;-74
2024/01/25 01:41:41;;;;;;;0.28;0.28;;;;;;;;;;5000733;28;20128;-74
2024/01/25 01:44:09;;;;;;;0.15;0.15;;;;;;;;;;5001097;28;20049;-74
2024/01/25 01:46:39;;;;;;;0.10;0.10;;;;;;;;;;5001453;28;20046;-75
2024/01/25 01:49:11;;;;;;;0.20;0.20;;;;;;;;;;4981356;28;20056;-75
2024/01/25 01:51:39;;;;;;;1.42;0.68;;;;;;;;;;4993277;28;20073;-75
2024/01/25 01:54:07;;;;;;;0.10;0.10;;;;;;;;;;5004065;28;20389;-74
2024/01/25 01:56:36;;;;;;;0.73;0.73;;;;;;;;;;4998988;28;20068;-75
2024/01/25 01:59:05;;;;;;;0.00;0.00;;;;;;;;;;5000468;28;20152;-74
2024/01/25 02:01:33;;;;;;;5.38;1.63;;;;;;;;;;4999215;28;20908;-75
2024/01/25 02:04:00;;;;;;;1.33;1.23;;;;;;;;;;4998007;28;20053;-74
2024/01/25 02:06:28;;;;;;;0.10;0.10;;;;;;;;;;5001556;28;20049;-74
2024/01/25 02:08:58;;;;;;;0.10;0.10;;;;;;;;;;4994753;28;20512;-74
2024/01/25 02:11:26;;;;;;;2.50;1.05;;;;;;;;;;5001791;28;20762;-74
2024/01/25 02:13:53;;;;;;;2.88;1.10;;;;;;;;;;5000406;28;20065;-74
2024/01/25 02:16:21;;;;;;;2.08;1.00;;;;;;;;;;4999511;28;20038;-74
2024/01/25 02:18:49;;;;;;;1.13;0.90;;;;;;;;;;5000876;28;20049;-74
2024/01/25 02:21:17;;;;;;;0.10;0.10;;;;;;;;;;4991798;28;20061;-75
2024/01/25 02:23:45;;;;;;;0.10;0.10;;;;;;;;;;4997691;28;20129;-73
2024/01/25 02:26:12;;;;;;;0.13;0.13;;;;;;;;;;4992776;28;20061;-75
2024/01/25 02:28:40;;;;;;;6.00;1.55;;;;;;;;;;4999895;28;20459;-75
2024/01/25 02:31:08;;;;;;;0.93;0.55;;;;;;;;;;4997040;28;20061;-74
2024/01/25 02:33:35;;;;;;;0.10;0.10;;;;;;;;;;4992649;28;20092;-74
2024/01/25 02:36:03;;;;;;;0.43;0.20;;;;;;;;;;4987182;28;20393;-74
2024/01/25 02:38:31;;;;;;;1.65;0.63;;;;;;;;;;4996313;28;20074;-74
2024/01/25 02:40:58;;;;;;;0.10;0.10;;;;;;;;;;4996991;28;20045;-74
2024/01/25 02:43:26;;;;;;;1.88;0.40;;;;;;;;;;4996710;28;20411;-74
2024/01/25 02:45:54;;;;;;;0.10;0.10;;;;;;;;;;4994939;28;20404;-74
2024/01/25 02:48:22;;;;;;;0.10;0.10;;;;;;;;;;4991619;28;20046;-74
2024/01/25 02:50:49;;;;;;;4.15;0.68;;;;;;;;;;4997999;28;20046;-76
2024/01/25 02:53:17;;;;;;;2.63;0.45;;;;;;;;;;4994071;28;20041;-74
2024/01/25 02:55:44;;;;;;;0.10;0.10;;;;;;;;;;4995177;28;20038;-74
2024/01/25 02:58:12;;;;;;;0.00;0.00;;;;;;;;;;4993229;28;20042;-74
2024/01/25 03:00:39;;;;;;;0.20;0.20;;;;;;;;;;4996907;28;20669;-74
2024/01/25 03:03:07;;;;;;;0.10;0.10;;;;;;;;;;4997016;28;20065;-75
2024/01/25 03:05:34;;;;;;;1.15;0.80;;;;;;;;;;4993129;28;20038;-74
2024/01/25 03:08:02;;;;;;;0.20;0.20;;;;;;;;;;4997088;28;20054;-74
2024/01/25 03:10:30;;;;;;;0.10;0.10;;;;;;;;;;4995295;28;20049;-75
2024/01/25 03:12:57;;;;;;;0.10;0.10;;;;;;;;;;4998190;28;20053;-74
2024/01/25 03:15:25;;;;;;;0.10;0.10;;;;;;;;;;4990780;28;20095;-75
2024/01/25 03:17:52;;;;;;;6.72;2.20;;;;;;;;;;4998200;28;20077;-75
2024/01/25 03:20:19;;;;;;;0.10;0.10;;;;;;;;;;4994295;28;20138;-74
2024/01/25 03:22:47;;;;;;;0.10;0.10;;;;;;;;;;5001608;28;20042;-75
2024/01/25 03:25:14;;;;;;;2.58;1.08;;;;;;;;;;4995069;28;20037;-74
2024/01/25 03:27:42;;;;;;;0.75;0.75;;;;;;;;;;4995009;28;20042;-75
2024/01/25 03:30:10;;;;;;;0.20;0.20;;;;;;;;;;4998258;28;20092;-74
2024/01/25 03:32:38;;;;;;;1.27;0.93;;;;;;;;;;4991314;28;20061;-74
2024/01/25 03:35:05;;;;;;;0.28;0.15;;;;;;;;;;4987616;28;20133;-75
2024/01/25 03:37:33;;;;;;;2.70;1.65;;;;;;;;;;4996391;28;20058;-74
2024/01/25 03:40:00;;;;;;;0.75;0.75;;;;;;;;;;4996891;28;20411;-75
2024/01/25 03:42:28;;;;;;;0.00;0.00;;;;;;;;;;4995099;28;20041;-74
2024/01/25 03:44:56;;;;;;;2.85;1.30;;;;;;;;;;4997544;28;20048;-74
2024/01/25 03:47:23;;;;;;;0.20;0.20;;;;;;;;;;4999168;28;20125;-75
2024/01/25 03:49:50;;;;;;;0.20;0.20;;;;;;;;;;5003277;28;20048;-74
2024/01/25 03:52:18;;;;;;;6.60;1.13;;;;;;;;;;4999346;28;20140;-74
2024/01/25 03:54:46;;;;;;;0.35;0.35;;;;;;;;;;5001831;28;20065;-74
2024/01/25 03:57:13;;;;;;;0.10;0.10;;;;;;;;;;4995656;28;20053;-75
2024/01/25 03:59:41;;;;;;;0.40;0.40;;;;;;;;;;4997006;28;20074;-74
2024/01/25 04:02:09;;;;;;;0.10;0.10;;;;;;;;;;4996519;28;20551;-75
2024/01/25 04:04:37;;;;;;;0.15;0.10;;;;;;;;;;4999650;28;20133;-75
2024/01/25 04:07:05;;;;;;;1.75;0.55;;;;;;;;;;5002201;28;20046;-75
2024/01/25 04:09:32;;;;;;;1.27;0.50;;;;;;;;;;5001179;28;20065;-75
2024/01/25 04:12:00;;;;;;;7.10;1.20;;;;;;;;;;4999172;28;20085;-74
2024/01/25 04:14:27;;;;;;;2.05;1.55;;;;;;;;;;5001665;28;20057;-75
2024/01/25 04:16:55;;;;;;;4.95;1.15;;;;;;;;;;5004854;28;20054;-74
2024/01/25 04:19:22;;;;;;;0.20;0.20;;;;;;;;;;5005370;28;20038;-78
2024/01/25 04:21:50;;;;;;;1.20;0.68;;;;;;;;;;5002265;28;20136;-78
2024/01/25 04:24:17;;;;;;;1.80;1.70;;;;;;;;;;5001979;28;20631;-79
2024/01/25 04:26:45;;;;;;;3.00;0.47;;;;;;;;;;5000538;28;20042;-78
2024/01/25 04:29:12;;;;;;;0.52;0.52;;;;;;;;;;5002261;28;20050;-78
2024/01/25 04:31:48;;;;;;;16.00;0.50;;;;;;;;;;5005343;28;20049;-78
2024/01/25 04:34:15;;;;;;;2.63;0.35;;;;;;;;;;5004100;23;20038;-84
2024/01/25 04:36:43;;;;;;;0.45;0.40;;;;;;;;;;4983639;28;20050;-85
2024/01/25 04:39:11;;;;;;;1.17;1.00;;;;;;;;;;4990855;28;20038;-85
2024/01/25 04:41:38;;;;;;;0.10;0.10;;;;;;;;;;4988741;28;20101;-84
2024/01/25 04:44:06;;;;;;;0.10;0.10;;;;;;;;;;4990613;28;20069;-85
2024/01/25 04:46:36;;;;;;;0.10;0.10;;;;;;;;;;4989404;28;20057;-85
2024/01/25 04:49:04;;;;;;;0.38;0.38;;;;;;;;;;4988637;28;20045;-85
2024/01/25 04:51:31;;;;;;;0.25;0.25;;;;;;;;;;4986510;28;20049;-84
2024/01/25 04:53:59;;;;;;;0.10;0.10;;;;;;;;;;4989584;28;20130;-84
2024/01/25 04:56:26;;;;;;;0.10;0.10;;;;;;;;;;4985971;28;20039;-85
2024/01/25 04:58:53;;;;;;;12.15;0.65;;;;;;;;;;4989773;28;20050;-84
2024/01/25 05:01:21;;;;;;;0.40;0.40;;;;;;;;;;4988580;28;20041;-84
2024/01/25 05:03:48;;;;;;;0.10;0.10;;;;;;;;;;4990194;28;20050;-85
2024/01/25 05:06:18;;;;;;;0.10;0.10;;;;;;;;;;4989888;28;20101;-84
2024/01/25 05:08:46;;;;;;;0.10;0.10;;;;;;;;;;4989218;28;20427;-83
2024/01/25 05:11:13;;;;;;;0.32;0.32;;;;;;;;;;4988274;28;20050;-84
2024/01/25 05:13:40;;;;;;;0.10;0.10;;;;;;;;;;4989793;28;20053;-84
2024/01/25 05:16:08;;;;;;;0.10;0.10;;;;;;;;;;4987004;28;20504;-85
2024/01/25 05:18:35;;;;;;;0.57;0.57;;;;;;;;;;4988614;28;20057;-85
2024/01/25 05:21:03;;;;;;;0.22;0.20;;;;;;;;;;4997731;28;20106;-84
2024/01/25 05:23:30;;;;;;;0.00;0.00;;;;;;;;;;5007509;28;20077;-84
2024/01/25 05:26:00;;;;;;;0.10;0.10;;;;;;;;;;4991896;28;20132;-84
2024/01/25 05:28:27;;;;;;;1.65;1.15;;;;;;;;;;4988502;28;20057;-84
2024/01/25 05:30:54;;;;;;;0.10;0.10;;;;;;;;;;4989931;28;20047;-84
2024/01/25 05:33:22;;;;;;;1.95;0.63;;;;;;;;;;4988834;28;20058;-84
2024/01/25 05:35:49;;;;;;;6.13;1.05;;;;;;;;;;4982131;28;20051;-85
2024/01/25 05:38:17;;;;;;;0.22;0.20;;;;;;;;;;4989642;28;20050;-84
2024/01/25 05:40:45;;;;;;;0.00;0.00;;;;;;;;;;4990630;28;20039;-85
2024/01/25 05:43:12;;;;;;;0.65;0.50;;;;;;;;;;4977121;28;20052;-84
2024/01/25 05:45:40;;;;;;;0.40;0.40;;;;;;;;;;4989069;28;20053;-84
2024/01/25 05:48:07;;;;;;;0.68;0.68;;;;;;;;;;4988957;28;20054;-84
2024/01/25 05:50:35;;;;;;;0.30;0.30;;;;;;;;;;4988029;28;20057;-85
2024/01/25 05:53:02;;;;;;;6.20;1.08;;;;;;;;;;4988848;28;20157;-84
2024/01/25 05:55:30;;;;;;;3.63;0.70;;;;;;;;;;4986938;28;20108;-85
2024/01/25 05:57:57;;;;;;;1.38;0.98;;;;;;;;;;4991032;28;20065;-85
2024/01/25 06:00:28;;;;;;;2.72;1.33;;;;;;;;;;4987565;28;20097;-85
2024/01/25 06:02:55;;;;;;;0.73;0.35;;;;;;;;;;4988657;28;20041;-85
2024/01/25 06:05:23;;;;;;;5.15;0.77;;;;;;;;;;4985181;28;20457;-84
2024/01/25 06:07:50;;;;;;;2.45;0.68;;;;;;;;;;4987315;28;20061;-85
2024/01/25 06:10:18;;;;;;;1.58;1.48;;;;;;;;;;4985492;28;20101;-85
2024/01/25 06:12:46;;;;;;;0.10;0.10;;;;;;;;;;4987795;28;20042;-85
2024/01/25 06:15:13;;;;;;;4.43;1.67;;;;;;;;;;4983349;28;20571;-84
2024/01/25 06:17:40;;;;;;;1.23;1.23;;;;;;;;;;4981545;28;20052;-85
2024/01/25 06:20:10;;;;;;;8.90;2.47;;;;;;;;;;4986025;28;20061;-85
2024/01/25 06:22:40;;;;;;;1.85;0.50;;;;;;;;;;4973828;28;20659;-84
2024/01/25 06:25:08;;;;;;;0.15;0.15;;;;;;;;;;4986590;28;20077;-84
2024/01/25 06:27:36;;;;;;;0.10;0.10;;;;;;;;;;4988372;28;20117;-84
2024/01/25 06:30:04;;;;;;;0.63;0.63;;;;;;;;;;4985262;28;20125;-85
2024/01/25 06:32:31;;;;;;;2.92;1.40;;;;;;;;;;4979734;28;20042;-84
2024/01/25 06:34:59;;;;;;;0.20;0.20;;;;;;;;;;4987251;28;20610;-84
2024/01/25 06:37:27;;;;;;;2.20;1.52;;;;;;;;;;4982019;28;20053;-85
2024/01/25 06:39:54;;;;;;;0.45;0.45;;;;;;;;;;4990416;28;20112;-85
2024/01/25 06:42:22;;;;;;;6.55;1.27;;;;;;;;;;4984593;28;20038;-85
2024/01/25 06:44:49;;;;;;;0.40;0.30;;;;;;;;;;4980140;28;20042;-85
2024/01/25 06:47:17;;;;;;;6.95;1.08;;;;;;;;;;4955194;28;20053;-84
2024/01/25 06:49:51;;;;;;;4.68;0.65;;;;;;;;;;4986952;28;20103;-85
2024/01/25 06:52:19;;;;;;;1.15;0.75;;;;;;;;;;4980907;28;20057;-85
2024/01/25 06:54:46;;;;;;;5.97;1.38;;;;;;;;;;4988028;28;20046;-84
2024/01/25 06:57:14;;;;;;;1.30;0.45;;;;;;;;;;4988686;28;20034;-85
2024/01/25 06:59:41;;;;;;;3.58;1.23;;;;;;;;;;4941942;28;20051;-86
2024/01/25 07:02:09;;;;;;;3.10;1.45;;;;;;;;;;4985935;28;20452;-85
2024/01/25 07:04:40;;;;;;;0.63;0.60;;;;;;;;;;4984432;28;20038;-85
2024/01/25 07:07:08;;;;;;;3.10;0.73;;;;;;;;;;4980036;28;20081;-85
2024/01/25 07:09:36;;;;;;;0.10;0.10;;;;;;;;;;4985949;28;20050;-85
2024/01/25 07:12:03;;;;;;;0.20;0.20;;;;;;;;;;4990025;28;20126;-85
2024/01/25 07:14:30;;;;;;;7.07;1.75;;;;;;;;;;4985548;28;20054;-85
2024/01/25 07:16:58;;;;;;;0.30;0.30;;;;;;;;;;4987012;28;20460;-85
2024/01/25 07:19:25;;;;;;;8.38;2.45;;;;;;;;;;4985030;28;20046;-85
2024/01/25 07:21:53;;;;;;;0.15;0.15;;;;;;;;;;4982245;28;20042;-85
2024/01/25 07:24:22;;;;;;;0.35;0.35;;;;;;;;;;4988825;28;20046;-85
2024/01/25 07:26:50;;;;;;;0.20;0.20;;;;;;;;;;4993857;28;20121;-84
2024/01/25 07:29:17;;;;;;;0.30;0.28;;;;;;;;;;4990439;28;20124;-84
2024/01/25 07:31:44;;;;;;;0.10;0.10;;;;;;;;;;4988608;28;20075;-85
2024/01/25 07:34:12;;;;;;;4.90;0.45;;;;;;;;;;4985879;28;20080;-84
2024/01/25 07:36:40;;;;;;;0.45;0.45;;;;;;;;;;4985772;28;20042;-85
2024/01/25 07:39:08;;;;;;;0.10;0.10;;;;;;;;;;4984145;28;20065;-85
2024/01/25 07:41:35;;;;;;;0.50;0.50;;;;;;;;;;4986794;28;20117;-85
2024/01/25 07:44:05;;;;;;;0.35;0.35;;;;;;;;;;4985678;28;20041;-84
2024/01/25 07:46:33;;;;;;;0.20;0.20;;;;;;;;;;4987690;28;20050;-85
2024/01/25 07:49:01;;;;;;;1.05;0.95;;;;;;;;;;4990042;28;20389;-84
2024/01/25 07:51:29;;;;;;;0.63;0.32;;;;;;;;;;4990216;28;20459;-85
2024/01/25 07:53:56;;;;;;;1.35;1.17;;;;;;;;;;4990287;28;20054;-85
2024/01/25 07:56:24;;;;;;;0.75;0.75;;;;;;;;;;4989216;28;20066;-85
2024/01/25 07:58:52;;;;;;;1.08;0.80;;;;;;;;;;4989801;28;20051;-85
2024/01/25 08:01:19;;;;;;;1.90;1.73;;;;;;;;;;4987234;28;20058;-84
2024/01/25 08:03:46;;;;;;;0.43;0.43;;;;;;;;;;4986103;28;20053;-85
2024/01/25 08:06:15;;;;;;;1.00;0.25;;;;;;;;;;4984748;28;20439;-84
2024/01/25 08:08:42;;;;;;;2.03;1.52;;;;;;;;;;4989740;28;20057;-84
2024/01/25 08:11:09;;;;;;;0.38;0.38;;;;;;;;;;4990533;28;20142;-85
2024/01/25 08:13:38;;;;;;;1.95;1.83;;;;;;;;;;4989067;28;20050;-85
2024/01/25 08:16:10;;;;;;;0.40;0.40;;;;;;;;;;4991147;28;20092;-85
2024/01/25 08:18:39;;;;;;;0.60;0.50;;;;;;;;;;4985333;28;21391;-85
2024/01/25 08:21:06;;;;;;;0.43;0.43;;;;;;;;;;4989930;28;20543;-84
2024/01/25 08:23:34;;;;;;;2.28;0.88;;;;;;;;;;4989618;28;20054;-84
2024/01/25 08:26:01;;;;;;;0.50;0.50;;;;;;;;;;4987608;28;20125;-85
2024/01/25 08:28:28;;;;;;;0.98;0.55;;;;;;;;;;4981294;28;20124;-83
2024/01/25 08:30:56;;;;;;;7.13;0.93;;;;;;;;;;4989380;28;20043;-87
2024/01/25 08:33:25;;;;;;;0.50;0.50;;;;;;;;;;4990612;28;20133;-87
2024/01/25 08:35:55;;;;;;;1.17;1.02;;;;;;;;;;4991061;28;20057;-87
2024/01/25 08:38:23;;;;;;;0.35;0.35;;;;;;;;;;4989292;28;20118;-87
2024/01/25 08:40:51;;;;;;;17.48;5.97;;;;;;;;;;4992709;28;20052;-87
2024/01/25 08:43:18;;;;;;;3.65;1.88;;;;;;;;;;4993505;28;20055;-88
2024/01/25 08:45:46;;;;;;;0.55;0.55;;;;;;;;;;4990734;28;20124;-87
2024/01/25 08:48:14;;;;;;;0.28;0.28;;;;;;;;;;4983981;28;20534;-88
2024/01/25 08:50:41;;;;;;;1.15;0.90;;;;;;;;;;4962272;28;20516;-87
2024/01/25 08:53:09;;;;;;;0.50;0.50;;;;;;;;;;4988950;28;20050;-87
2024/01/25 08:55:37;;;;;;;2.13;0.88;;;;;;;;;;4987330;28;20139;-88
2024/01/25 08:58:04;;;;;;;2.45;0.30;;;;;;;;;;4990637;28;20105;-88
2024/01/25 09:00:32;;;;;;;14.18;2.67;;;;;;;;;;4992011;28;20070;-87
2024/01/25 09:03:00;;;;;;;1.35;0.63;;;;;;;;;;4989249;28;20067;-85
2024/01/25 09:05:28;;;;;;;1.77;1.67;;;;;;;;;;4987933;28;20050;-86
2024/01/25 09:07:56;;;;;;;5.57;1.80;;;;;;;;;;4990420;28;20049;-86
2024/01/25 09:10:23;;;;;;;1.52;0.95;;;;;;;;;;4988982;28;20101;-85
2024/01/25 09:12:51;;;;;;;0.50;0.50;;;;;;;;;;4988623;28;20052;-86
2024/01/25 09:15:18;;;;;;;2.80;2.55;;;;;;;;;;4984139;28;20393;-86
2024/01/25 09:17:46;;;;;;;2.78;0.93;;;;;;;;;;4987039;28;20124;-85
2024/01/25 09:20:13;;;;;;;3.50;1.15;;;;;;;;;;4989315;28;20101;-85
2024/01/25 09:22:41;;;;;;;0.20;0.20;;;;;;;;;;4988116;28;20065;-85
2024/01/25 09:25:09;;;;;;;0.10;0.10;;;;;;;;;;4988672;28;20113;-85
2024/01/25 09:27:38;;;;;;;1.20;1.20;;;;;;;;;;4986127;28;20130;-86
2024/01/25 09:30:06;;;;;;;3.00;1.85;;;;;;;;;;4989200;28;20467;-87
2024/01/25 09:32:34;;;;;;;3.13;1.17;;;;;;;;;;4987192;28;20142;-86
2024/01/25 09:35:01;;;;;;;0.30;0.30;;;;;;;;;;4986996;28;20054;-87
2024/01/25 09:37:29;;;;;;;4.75;1.20;;;;;;;;;;4989868;28;20049;-86
2024/01/25 09:40:00;;;;;;;0.80;0.80;;;;;;;;;;4988441;28;20042;-87
2024/01/25 09:42:28;;;;;;;0.10;0.10;;;;;;;;;;4990959;28;20102;-86
2024/01/25 09:44:56;;;;;;;0.60;0.35;;;;;;;;;;4987937;28;20045;-86
2024/01/25 09:47:23;;;;;;;0.93;0.82;;;;;;;;;;4996255;28;20042;-86
2024/01/25 09:49:51;;;;;;;1.77;1.05;;;;;;;;;;4994893;28;20030;-86
2024/01/25 09:52:20;;;;;;;3.08;0.95;;;;;;;;;;4993941;28;20100;-87
2024/01/25 09:54:47;;;;;;;5.38;2.35;;;;;;;;;;4992751;28;20072;-87
2024/01/25 09:57:17;;;;;;;9.25;1.83;;;;;;;;;;4995457;28;20077;-87
2024/01/25 09:59:45;;;;;;;1.85;0.35;;;;;;;;;;4997923;28;20042;-87
2024/01/25 10:02:13;;;;;;;8.00;2.25;;;;;;;;;;4996916;28;20531;-86
2024/01/25 10:04:41;;;;;;;1.40;1.30;;;;;;;;;;4993654;28;20125;-86
2024/01/25 10:07:09;;;;;;;1.60;1.42;;;;;;;;;;4991919;28;20061;-86
2024/01/25 10:09:40;;;;;;;3.55;1.02;;;;;;;;;;5012854;28;20102;-87
2024/01/25 10:12:09;;;;;;;1.98;1.15;;;;;;;;;;5000166;28;20093;-86
2024/01/25 10:14:45;;;;;;;4.28;1.58;;;;;;;;;;4988913;28;20133;-86
2024/01/25 10:17:13;;;;;;;3.58;1.10;;;;;;;;;;4970290;28;20133;-87
2024/01/25 10:19:44;;;;;;;4.95;1.15;;;;;;;;;;4990775;28;20140;-86
2024/01/25 10:22:13;;;;;;;13.35;1.90;;;;;;;;;;4979314;28;20517;-86
2024/01/25 10:24:42;;;;;;;2.42;1.20;;;;;;;;;;4988243;28;20124;-86
2024/01/25 10:27:12;;;;;;;2.65;0.63;;;;;;;;;;4989919;28;20042;-86
2024/01/25 10:29:39;;;;;;;0.90;0.55;;;;;;;;;;4996962;28;20054;-86
2024/01/25 10:32:08;;;;;;;12.20;3.30;;;;;;;;;;4997114;28;20054;-86
2024/01/25 10:34:37;;;;;;;1.98;1.08;;;;;;;;;;4997502;28;20050;-86
2024/01/25 10:37:06;;;;;;;3.05;1.27;;;;;;;;;;4983061;28;20054;-86
2024/01/25 10:39:34;;;;;;;1.02;0.60;;;;;;;;;;4994595;28;20074;-86
2024/01/25 10:42:07;;;;;;;9.90;2.95;;;;;;;;;;4992482;28;20138;-84
2024/01/25 10:44:35;;;;;;;2.08;1.77;;;;;;;;;;4991330;28;20049;-85
2024/01/25 10:47:03;;;;;;;1.88;1.02;;;;;;;;;;4993581;28;20110;-83
2024/01/25 10:49:31;;;;;;;1.75;0.80;;;;;;;;;;4994830;28;20127;-85
2024/01/25 10:51:59;;;;;;;1.65;0.93;;;;;;;;;;5003443;28;20051;-85
2024/01/25 10:54:27;;;;;;;3.95;1.73;;;;;;;;;;4985305;28;20046;-83
2024/01/25 10:56:54;;;;;;;8.13;1.77;;;;;;;;;;4999516;28;20050;-85
2024/01/25 10:59:25;;;;;;;2.85;1.52;;;;;;;;;;4996383;28;20046;-85
2024/01/25 11:01:54;;;;;;;9.55;2.13;;;;;;;;;;4993275;28;20516;-86
2024/01/25 11:04:22;;;;;;;15.55;2.72;;;;;;;;;;4994265;28;20052;-86
2024/01/25 11:06:50;;;;;;;0.63;0.63;;;;;;;;;;4998738;28;20046;-86
2024/01/25 11:09:25;;;;;;;3.97;1.85;;;;;;;;;;4996088;28;20051;-86
2024/01/25 11:11:54;;;;;;;1.92;0.80;;;;;;;;;;4995995;28;20057;-86
2024/01/25 11:14:26;;;;;;;2.80;1.48;;;;;;;;;;4999903;28;20062;-86
2024/01/25 11:16:53;;;;;;;1.58;0.80;;;;;;;;;;4996971;28;20042;-86
2024/01/25 11:19:22;;;;;;;5.78;2.13;;;;;;;;;;4996054;28;20141;-86
2024/01/25 11:21:51;;;;;;;0.68;0.68;;;;;;;;;;4993308;28;20038;-85
2024/01/25 11:24:22;;;;;;;6.53;1.80;;;;;;;;;;4999068;28;20053;-86
2024/01/25 11:26:50;;;;;;;1.33;1.00;;;;;;;;;;4991930;28;20049;-86
2024/01/25 11:29:18;;;;;;;0.63;0.55;;;;;;;;;;4992035;28;20030;-86
2024/01/25 11:31:46;;;;;;;1.80;0.75;;;;;;;;;;4995780;28;20129;-86
2024/01/25 11:34:15;;;;;;;7.53;2.03;;;;;;;;;;4994829;28;20046;-87
2024/01/25 11:36:43;;;;;;;2.80;0.93;;;;;;;;;;4991144;28;20054;-86
2024/01/25 11:39:11;;;;;;;1.65;1.17;;;;;;;;;;4996772;28;20073;-87
2024/01/25 11:41:39;;;;;;;2.58;1.17;;;;;;;;;;4996347;28;20042;-86
2024/01/25 11:44:07;;;;;;;1.95;1.10;;;;;;;;;;4995149;28;20046;-86
2024/01/25 11:46:34;;;;;;;3.45;1.58;;;;;;;;;;4992307;28;20046;-84
2024/01/25 11:49:06;;;;;;;1.20;1.05;;;;;;;;;;4991721;28;20054;-87
2024/01/25 11:51:34;;;;;;;5.03;1.95;;;;;;;;;;4991341;28;20066;-86
2024/01/25 11:54:05;;;;;;;0.10;0.10;;;;;;;;;;4990576;28;20049;-86
2024/01/25 11:56:34;;;;;;;4.90;0.70;;;;;;;;;;4989359;28;20042;-86
2024/01/25 11:59:02;;;;;;;1.00;0.52;;;;;;;;;;4988461;28;20475;-87
2024/01/25 12:01:30;;;;;;;1.10;1.00;;;;;;;;;;4990653;28;20058;-85
2024/01/25 12:03:58;;;;;;;4.43;0.93;;;;;;;;;;5009140;28;20065;-84
2024/01/25 12:06:26;;;;;;;0.65;0.65;;;;;;;;;;4989211;28;20512;-84
2024/01/25 12:08:53;;;;;;;2.05;1.20;;;;;;;;;;4992813;28;20145;-86
2024/01/25 12:11:22;;;;;;;2.92;0.70;;;;;;;;;;4997812;23;20501;-78
2024/01/25 12:13:50;;;;;;;2.15;0.45;;;;;;;;;;4972758;28;20065;-78
2024/01/25 12:16:18;;;;;;;0.35;0.30;;;;;;;;;;4969493;28;20043;-77
2024/01/25 12:18:46;;;;;;;0.80;0.80;;;;;;;;;;4968705;28;20055;-78
2024/01/25 12:21:14;;;;;;;2.20;0.30;;;;;;;;;;4968736;28;20066;-78
2024/01/25 12:23:43;;;;;;;1.77;1.35;;;;;;;;;;4961953;28;20072;-78
2024/01/25 12:26:11;;;;;;;2.95;1.65;;;;;;;;;;4966175;28;20386;-78
2024/01/25 12:28:39;;;;;;;1.33;0.52;;;;;;;;;;4956198;28;20074;-78
2024/01/25 12:31:07;;;;;;;5.93;2.03;;;;;;;;;;4971893;28;20110;-77
2024/01/25 12:33:35;;;;;;;2.05;0.80;;;;;;;;;;4969632;28;20102;-78
2024/01/25 12:36:03;;;;;;;6.68;2.13;;;;;;;;;;4965887;28;20062;-78
2024/01/25 12:38:34;;;;;;;0.77;0.43;;;;;;;;;;4967583;28;20046;-78
2024/01/25 12:41:02;;;;;;;3.20;0.75;;;;;;;;;;4971314;28;20050;-78
2024/01/25 12:43:31;;;;;;;0.70;0.60;;;;;;;;;;4970429;28;20066;-78
2024/01/25 12:45:59;;;;;;;0.60;0.60;;;;;;;;;;4955932;28;20035;-77
2024/01/25 12:48:44;;;;;;;0.93;0.50;;;;;;;;;;4965911;28;20126;-77
2024/01/25 12:51:14;;;;;;;1.25;1.15;;;;;;;;;;4971651;28;20060;-77
2024/01/25 12:53:42;;;;;;;2.28;1.65;;;;;;;;;;4971612;28;20049;-78
2024/01/25 12:56:10;;;;;;;4.07;1.17;;;;;;;;;;4969653;28;20062;-78
2024/01/25 12:58:38;;;;;;;0.22;0.10;;;;;;;;;;4971006;28;20098;-79
2024/01/25 13:01:06;;;;;;;0.47;0.47;;;;;;;;;;4960320;28;20046;-79
2024/01/25 13:03:34;;;;;;;1.17;1.00;;;;;;;;;;4962632;28;20046;-78
2024/01/25 13:06:05;;;;;;;1.27;1.05;;;;;;;;;;4969485;28;20055;-79
2024/01/25 13:08:33;;;;;;;5.75;1.85;;;;;;;;;;4974803;28;20051;-79
2024/01/25 13:11:00;;;;;;;1.08;0.65;;;;;;;;;;4972721;28;20062;-78
2024/01/25 13:13:28;;;;;;;1.38;0.90;;;;;;;;;;4973363;28;20058;-79
2024/01/25 13:15:56;;;;;;;0.55;0.55;;;;;;;;;;4990867;28;20050;-79
2024/01/25 13:18:26;;;;;;;1.95;0.75;;;;;;;;;;4973959;28;20046;-79
2024/01/25 13:20:53;;;;;;;7.40;2.15;;;;;;;;;;4973342;28;20166;-79
2024/01/25 13:23:21;;;;;;;1.48;1.13;;;;;;;;;;4965008;28;20098;-79
2024/01/25 13:25:48;;;;;;;0.22;0.22;;;;;;;;;;4966778;28;20047;-79
2024/01/25 13:28:16;;;;;;;0.47;0.47;;;;;;;;;;4968920;28;20484;-79
2024/01/25 13:30:47;;;;;;;0.83;0.83;;;;;;;;;;4960973;28;20047;-79
2024/01/25 13:33:14;;;;;;;2.00;1.75;;;;;;;;;;4968489;28;20114;-79
2024/01/25 13:35:42;;;;;;;1.38;0.73;;;;;;;;;;4972694;28;20288;-79
2024/01/25 13:38:14;;;;;;;0.17;0.17;;;;;;;;;;4967301;28;20066;-79
2024/01/25 13:40:42;;;;;;;0.30;0.30;;;;;;;;;;4972248;28;20050;-80
2024/01/25 13:43:10;;;;;;;4.65;1.83;;;;;;;;;;4971197;28;20082;-78
2024/01/25 13:45:37;;;;;;;1.13;1.13;;;;;;;;;;4970623;28;20074;-79
2024/01/25 13:48:05;;;;;;;0.63;0.50;;;;;;;;;;4973337;28;20057;-79
2024/01/25 13:50:33;;;;;;;0.10;0.10;;;;;;;;;;4975389;28;20059;-79
2024/01/25 13:53:00;;;;;;;1.13;0.55;;;;;;;;;;4970952;28;20049;-79
2024/01/25 13:55:28;;;;;;;0.20;0.20;;;;;;;;;;4971252;28;20054;-79
2024/01/25 13:57:55;;;;;;;0.55;0.20;;;;;;;;;;4968377;28;20312;-79
2024/01/25 14:00:23;;;;;;;0.10;0.10;;;;;;;;;;4975836;28;20138;-79
2024/01/25 14:02:50;;;;;;;0.52;0.52;;;;;;;;;;4974619;28;20126;-76
2024/01/25 14:05:18;;;;;;;0.30;0.30;;;;;;;;;;4970540;28;20085;-76
2024/01/25 14:07:46;;;;;;;8.32;1.02;;;;;;;;;;4975010;28;20034;-78
2024/01/25 14:10:14;;;;;;;2.90;0.90;;;;;;;;;;4976321;28;20051;-77
2024/01/25 14:12:43;;;;;;;0.85;0.63;;;;;;;;;;4964244;28;20043;-78
2024/01/25 14:15:11;;;;;;;0.90;0.90;;;;;;;;;;4964440;28;20062;-78
2024/01/25 14:17:39;;;;;;;0.93;0.40;;;;;;;;;;4965306;28;20513;-78
2024/01/25 14:20:08;;;;;;;5.47;1.02;;;;;;;;;;4966640;28;20527;-78
2024/01/25 14:22:36;;;;;;;0.82;0.40;;;;;;;;;;4967273;28;20043;-78
2024/01/25 14:25:05;;;;;;;0.10;0.10;;;;;;;;;;4970175;28;20047;-78
2024/01/25 14:27:32;;;;;;;0.10;0.10;;;;;;;;;;4970114;28;20125;-78
2024/01/25 14:30:00;;;;;;;1.08;0.95;;;;;;;;;;4972359;28;20051;-78
2024/01/25 14:32:28;;;;;;;0.30;0.30;;;;;;;;;;4933907;28;20130;-78
2024/01/25 14:34:56;;;;;;;0.17;0.17;;;;;;;;;;4965583;28;20046;-78
2024/01/25 14:37:24;;;;;;;0.10;0.10;;;;;;;;;;4966284;28;20113;-78
2024/01/25 14:39:52;;;;;;;0.10;0.10;;;;;;;;;;4962866;28;20661;-78
2024/01/25 14:42:39;;;;;;;0.20;0.20;;;;;;;;;;4967267;28;20047;-78
2024/01/25 14:45:07;;;;;;;0.40;0.40;;;;;;;;;;4949465;28;20090;-78
2024/01/25 14:47:35;;;;;;;0.10;0.10;;;;;;;;;;4954416;28;20131;-78